createdAt,value
2023-02-17T00:00:54.613Z,99530.28
2023-02-17T00:03:24.088Z,99533.19
2023-02-17T00:05:53.490Z,99534.44
2023-02-17T00:08:21.329Z,99536.03
2023-02-17T00:10:56.147Z,99546.50
2023-02-17T00:13:24.129Z,99528.41
2023-02-17T00:15:52.229Z,99532.25
2023-02-17T00:18:20.113Z,99536.44
2023-02-17T00:20:48.280Z,99534.00
2023-02-17T00:23:17.810Z,99528.81
2023-02-17T00:25:45.767Z,99534.44
2023-02-17T00:28:13.779Z,99533.88
2023-02-17T00:30:41.703Z,99539.91
2023-02-17T00:33:09.716Z,99534.94
2023-02-17T00:35:40.268Z,99533.03
2023-02-17T00:38:08.177Z,99527.72
2023-02-17T00:40:37.222Z,99527.38
2023-02-17T00:43:06.596Z,99519.97
2023-02-17T00:45:34.661Z,99526.78
2023-02-17T00:48:02.571Z,99522.56
2023-02-17T00:50:30.569Z,99518.56
2023-02-17T00:52:58.624Z,99511.09
2023-02-17T00:55:26.805Z,99518.81
2023-02-17T00:57:54.831Z,99506.59
2023-02-17T01:00:24.334Z,99507.06
2023-02-17T01:02:52.329Z,99512.31
2023-02-17T01:05:20.528Z,99509.97
2023-02-17T01:07:48.514Z,99509.34
2023-02-17T01:10:16.934Z,99506.97
2023-02-17T01:12:44.892Z,99512.22
2023-02-17T01:15:12.922Z,99510.31
2023-02-17T01:17:42.272Z,99510.03
2023-02-17T01:20:10.401Z,99510.25
2023-02-17T01:22:39.592Z,99512.06
2023-02-17T01:25:07.977Z,99503.84
2023-02-17T01:27:36.452Z,99512.44
2023-02-17T01:30:04.827Z,99511.16
2023-02-17T01:32:32.778Z,99500.53
2023-02-17T01:35:02.173Z,99504.25
2023-02-17T01:37:30.817Z,99503.13
2023-02-17T01:39:58.706Z,99509.31
2023-02-17T01:42:26.690Z,99501.91
2023-02-17T01:45:29.348Z,99507.41
2023-02-17T01:48:00.437Z,99506.44
2023-02-17T01:50:32.698Z,99505.16
2023-02-17T01:53:01.394Z,99509.19
2023-02-17T01:55:29.474Z,99504.00
2023-02-17T01:58:00.539Z,99502.88
2023-02-17T02:00:30.244Z,99506.25
2023-02-17T02:02:58.400Z,99512.09
2023-02-17T02:05:26.581Z,99505.59
2023-02-17T02:07:56.044Z,99513.53
2023-02-17T02:10:24.029Z,99507.03
2023-02-17T02:12:51.953Z,99503.78
2023-02-17T02:15:21.218Z,99502.31
2023-02-17T02:18:01.004Z,99507.31
2023-02-17T02:20:56.590Z,99503.09
2023-02-17T02:23:45.249Z,99508.66
2023-02-17T02:26:31.851Z,99505.03
2023-02-17T02:29:09.327Z,99500.94
2023-02-17T02:31:43.672Z,99499.09
2023-02-17T02:34:16.938Z,99507.22
2023-02-17T02:36:46.586Z,99507.84
2023-02-17T02:39:17.190Z,99497.81
2023-02-17T02:41:46.517Z,99503.44
2023-02-17T02:44:15.842Z,99501.81
2023-02-17T02:46:43.816Z,99504.06
2023-02-17T02:49:13.465Z,99497.50
2023-02-17T02:51:47.533Z,99502.81
2023-02-17T02:54:38.426Z,99507.69
2023-02-17T02:57:12.995Z,99511.50
2023-02-17T02:59:45.925Z,99510.44
2023-02-17T03:02:18.270Z,99511.72
2023-02-17T03:04:52.931Z,99510.47
2023-02-17T03:07:24.398Z,99509.84
2023-02-17T03:09:53.397Z,99517.97
2023-02-17T03:12:22.046Z,99513.59
2023-02-17T03:14:50.936Z,99505.84
2023-02-17T03:17:18.946Z,99502.44
2023-02-17T03:19:48.854Z,99508.59
2023-02-17T03:22:19.082Z,99502.75
2023-02-17T03:24:46.951Z,99497.53
2023-02-17T03:27:14.882Z,99495.22
2023-02-17T03:29:43.211Z,99496.81
2023-02-17T03:32:11.497Z,99497.84
2023-02-17T03:34:39.562Z,99494.75
2023-02-17T03:37:08.985Z,99497.50
2023-02-17T03:39:36.994Z,99495.72
2023-02-17T03:42:05.124Z,99494.25
2023-02-17T03:44:33.176Z,99497.16
2023-02-17T03:47:01.087Z,99498.56
2023-02-17T03:49:29.025Z,99501.44
2023-02-17T03:51:58.378Z,99494.47
2023-02-17T03:54:27.894Z,99493.53
2023-02-17T03:56:55.764Z,99497.31
2023-02-17T03:59:23.826Z,99491.81
2023-02-17T04:01:51.870Z,99492.47
2023-02-17T04:04:19.919Z,99492.78
2023-02-17T04:06:48.033Z,99498.59
2023-02-17T04:09:16.051Z,99495.69
2023-02-17T04:11:45.631Z,99496.56
2023-02-17T04:14:13.666Z,99503.28
2023-02-17T04:16:41.790Z,99500.94
2023-02-17T04:19:10.057Z,99504.00
2023-02-17T04:21:38.310Z,99495.19
2023-02-17T04:24:06.350Z,99502.44
2023-02-17T04:26:34.201Z,99498.16
2023-02-17T04:29:04.641Z,99497.13
2023-02-17T04:31:32.776Z,99500.44
2023-02-17T04:34:01.032Z,99494.22
2023-02-17T04:36:29.030Z,99498.84
2023-02-17T04:38:57.081Z,99500.09
2023-02-17T04:41:24.976Z,99504.44
2023-02-17T04:43:52.900Z,99500.50
2023-02-17T04:46:22.191Z,99509.22
2023-02-17T04:48:50.209Z,99505.16
2023-02-17T04:51:18.128Z,99509.63
2023-02-17T04:53:46.010Z,99506.53
2023-02-17T04:56:13.948Z,99501.50
2023-02-17T04:58:42.045Z,99497.97
2023-02-17T05:01:10.151Z,99501.38
2023-02-17T05:03:39.546Z,99503.81
2023-02-17T05:06:08.204Z,99504.59
2023-02-17T05:08:36.332Z,99506.22
2023-02-17T05:11:04.861Z,99509.34
2023-02-17T05:13:34.449Z,99501.56
2023-02-17T05:16:02.428Z,99494.13
2023-02-17T05:18:31.084Z,99500.19
2023-02-17T05:21:00.531Z,99502.19
2023-02-17T05:23:28.464Z,99494.94
2023-02-17T05:25:56.438Z,99502.53
2023-02-17T05:28:24.407Z,99509.28
2023-02-17T05:30:52.482Z,99500.63
2023-02-17T05:33:20.583Z,99505.72
2023-02-17T05:35:48.741Z,99504.19
2023-02-17T05:38:18.927Z,99506.69
2023-02-17T05:40:51.208Z,99508.53
2023-02-17T05:43:22.378Z,99511.81
2023-02-17T05:45:50.553Z,99507.50
2023-02-17T05:48:18.641Z,99505.22
2023-02-17T05:50:46.731Z,99512.22
2023-02-17T05:53:14.789Z,99507.50
2023-02-17T05:55:44.461Z,99514.44
2023-02-17T05:58:12.997Z,99493.25
2023-02-17T06:00:57.285Z,99523.19
2023-02-17T06:03:30.451Z,99527.28
2023-02-17T06:06:03.798Z,99531.63
2023-02-17T06:11:18.679Z,99533.44
2023-02-17T06:13:46.816Z,99535.84
2023-02-17T06:16:14.991Z,99533.88
2023-02-17T06:18:43.017Z,99540.00
2023-02-17T06:21:11.768Z,99538.38
2023-02-17T06:23:39.834Z,99535.75
2023-02-17T06:26:09.584Z,99538.63
2023-02-17T06:28:40.120Z,99541.47
2023-02-17T06:31:08.666Z,99537.06
2023-02-17T06:33:36.696Z,99538.97
2023-02-17T06:36:05.156Z,99530.38
2023-02-17T06:39:03.865Z,99538.13
2023-02-17T06:42:05.434Z,99535.06
2023-02-17T06:44:38.619Z,99533.03
2023-02-17T06:47:21.919Z,99536.59
2023-02-17T06:49:57.806Z,99533.16
2023-02-17T06:52:56.987Z,99534.50
2023-02-17T06:55:39.772Z,99535.72
2023-02-17T06:58:17.220Z,99535.97
2023-02-17T07:01:10.110Z,99534.91
2023-02-17T07:03:50.964Z,99539.88
2023-02-17T07:06:24.347Z,99525.34
2023-02-17T07:09:10.054Z,99528.69
2023-02-17T07:11:51.666Z,99525.56
2023-02-17T07:14:41.797Z,99528.28
2023-02-17T07:17:29.541Z,99528.88
2023-02-17T07:20:08.174Z,99520.25
2023-02-17T07:23:04.692Z,99529.06
2023-02-17T07:25:47.460Z,99523.69
2023-02-17T07:28:33.169Z,99516.44
2023-02-17T07:31:06.641Z,99523.78
2023-02-17T07:33:39.087Z,99516.50
2023-02-17T07:36:21.684Z,99530.25
2023-02-17T07:39:06.622Z,99520.28
2023-02-17T07:41:43.464Z,99532.06
2023-02-17T07:44:15.186Z,99493.63
2023-02-17T07:46:49.220Z,99531.03
2023-02-17T07:49:29.731Z,99523.97
2023-02-17T07:52:13.309Z,99519.47
2023-02-17T07:54:46.994Z,99521.06
2023-02-17T07:57:33.971Z,99519.56
2023-02-17T08:00:05.285Z,99521.00
2023-02-17T08:02:49.934Z,99514.44
2023-02-17T08:05:27.521Z,99518.84
2023-02-17T08:08:21.554Z,99513.28
2023-02-17T08:11:10.305Z,99510.16
2023-02-17T08:13:46.348Z,99511.69
2023-02-17T08:16:26.498Z,99521.44
2023-02-17T08:18:58.377Z,99515.81
2023-02-17T08:21:28.574Z,99515.88
2023-02-17T08:23:56.562Z,99509.19
2023-02-17T08:26:24.764Z,99518.00
2023-02-17T08:28:52.827Z,99515.44
2023-02-17T08:31:21.688Z,99514.34
2023-02-17T08:33:50.042Z,99515.44
2023-02-17T08:36:18.406Z,99514.03
2023-02-17T08:38:50.494Z,99517.78
2023-02-17T08:41:19.913Z,99514.94
2023-02-17T08:43:48.271Z,99511.94
2023-02-17T08:46:16.755Z,99504.38
2023-02-17T08:48:44.859Z,99507.84
2023-02-17T08:51:13.711Z,99502.19
2023-02-17T08:53:41.872Z,99510.66
2023-02-17T08:56:11.462Z,99503.66
2023-02-17T08:58:49.705Z,99499.50
2023-02-17T09:01:29.750Z,99501.13
2023-02-17T09:04:18.938Z,99511.63
2023-02-17T09:06:52.567Z,99509.75
2023-02-17T09:09:28.309Z,99510.56
2023-02-17T09:12:03.105Z,99508.13
2023-02-17T09:14:35.195Z,99515.00
2023-02-17T09:17:11.416Z,99520.13
2023-02-17T09:19:55.746Z,99522.00
2023-02-17T09:22:32.363Z,99513.38
2023-02-17T09:25:00.986Z,99510.84
2023-02-17T09:27:31.956Z,99507.81
2023-02-17T09:30:03.555Z,99502.84
2023-02-17T09:32:35.166Z,99499.81
2023-02-17T09:35:06.207Z,99500.53
2023-02-17T09:37:34.706Z,99498.81
2023-02-17T09:40:09.940Z,99495.94
2023-02-17T09:42:42.474Z,99491.66
2023-02-17T09:45:13.028Z,99488.41
2023-02-17T09:47:43.746Z,99489.13
2023-02-17T09:50:13.389Z,99487.88
2023-02-17T09:52:49.187Z,99480.78
2023-02-17T09:55:19.798Z,99487.31
2023-02-17T09:57:52.751Z,99477.41
2023-02-17T10:00:24.643Z,99480.16
2023-02-17T10:02:57.098Z,99477.63
2023-02-17T10:05:29.440Z,99481.44
2023-02-17T10:08:00.210Z,99479.75
2023-02-17T10:10:31.538Z,99474.53
2023-02-17T10:13:15.205Z,99467.78
2023-02-17T10:15:48.535Z,99465.63
2023-02-17T10:18:22.177Z,99457.25
2023-02-17T10:21:04.677Z,99463.06
2023-02-17T10:23:32.930Z,99465.84
2023-02-17T10:26:08.663Z,99470.16
2023-02-17T10:28:45.678Z,99457.53
2023-02-17T10:31:14.878Z,99452.94
2023-02-17T10:33:48.434Z,99454.63
2023-02-17T10:36:24.886Z,99445.94
2023-02-17T10:38:54.175Z,99442.31
2023-02-17T10:41:24.046Z,99440.97
2023-02-17T10:43:53.841Z,99438.63
2023-02-17T10:46:27.118Z,99432.78
2023-02-17T10:48:56.112Z,99438.88
2023-02-17T10:51:26.206Z,99438.38
2023-02-17T10:53:56.526Z,99431.66
2023-02-17T10:56:26.973Z,99434.09
2023-02-17T10:58:59.410Z,99434.28
2023-02-17T11:01:28.908Z,99426.00
2023-02-17T11:04:04.117Z,99429.28
2023-02-17T11:06:33.643Z,99418.25
2023-02-17T11:09:03.189Z,99421.72
2023-02-17T11:11:31.898Z,99422.97
2023-02-17T11:14:11.013Z,99422.16
2023-02-17T11:16:40.141Z,99419.44
2023-02-17T11:19:09.351Z,99426.78
2023-02-17T11:21:44.439Z,99426.66
2023-02-17T11:24:12.884Z,99426.03
2023-02-17T11:26:41.111Z,99415.31
2023-02-17T11:29:11.431Z,99422.22
2023-02-17T11:31:39.826Z,99415.09
2023-02-17T11:34:15.109Z,99413.63
2023-02-17T11:36:45.739Z,99411.16
2023-02-17T11:39:20.862Z,99409.19
2023-02-17T11:41:48.922Z,99401.59
2023-02-17T11:44:25.793Z,99401.72
2023-02-17T11:46:57.623Z,99395.44
2023-02-17T11:49:37.136Z,99392.59
2023-02-17T11:52:10.669Z,99398.41
2023-02-17T11:54:46.622Z,99393.34
2023-02-17T11:57:23.812Z,99396.84
2023-02-17T12:00:02.316Z,99395.03
2023-02-17T12:02:41.082Z,99385.66
2023-02-17T12:05:17.130Z,99386.16
2023-02-17T12:07:51.224Z,99388.53
2023-02-17T12:10:24.607Z,99375.63
2023-02-17T12:12:59.238Z,99379.84
2023-02-17T12:15:33.767Z,99379.38
2023-02-17T12:18:10.012Z,99386.56
2023-02-17T12:20:49.838Z,99381.63
2023-02-17T12:23:30.135Z,99380.00
2023-02-17T12:26:00.970Z,99378.56
2023-02-17T12:28:40.602Z,99381.50
2023-02-17T12:31:16.335Z,99383.56
2023-02-17T12:33:51.943Z,99380.31
2023-02-17T12:36:21.217Z,99380.69
2023-02-17T12:38:51.160Z,99378.91
2023-02-17T12:41:21.456Z,99379.97
2023-02-17T12:43:51.962Z,99378.53
2023-02-17T12:46:25.145Z,99371.44
2023-02-17T12:48:56.975Z,99378.38
2023-02-17T12:51:28.254Z,99375.06
2023-02-17T12:53:57.916Z,99379.38
2023-02-17T12:56:41.416Z,99383.88
2023-02-17T12:59:16.278Z,99370.03
2023-02-17T13:01:50.522Z,99370.84
2023-02-17T13:04:19.477Z,99366.44
2023-02-17T13:06:51.087Z,99367.47
2023-02-17T13:09:23.349Z,99360.00
2023-02-17T13:11:51.758Z,99361.63
2023-02-17T13:14:26.770Z,99364.75
2023-02-17T13:16:56.557Z,99358.91
2023-02-17T13:19:31.658Z,99364.91
2023-02-17T13:22:00.318Z,99359.19
2023-02-17T13:24:33.534Z,99358.63
2023-02-17T13:27:11.006Z,99321.97
2023-02-17T13:29:39.104Z,99357.75
2023-02-17T13:32:10.853Z,99360.97
2023-02-17T13:34:39.618Z,99353.81
2023-02-17T13:37:17.537Z,99347.19
2023-02-17T13:39:45.950Z,99354.91
2023-02-17T13:42:28.940Z,99354.44
2023-02-17T13:44:56.928Z,99345.09
2023-02-17T13:47:30.668Z,99344.50
2023-02-17T13:49:59.194Z,99339.00
2023-02-17T13:52:28.578Z,99338.81
2023-02-17T13:54:57.465Z,99338.19
2023-02-17T13:57:28.265Z,99338.47
2023-02-17T14:00:06.704Z,99337.84
2023-02-17T14:02:38.951Z,99336.47
2023-02-17T14:05:18.180Z,99327.50
2023-02-17T14:07:52.035Z,99340.06
2023-02-17T14:10:21.698Z,99322.03
2023-02-17T14:12:50.312Z,99326.63
2023-02-17T14:15:18.906Z,99330.09
2023-02-17T14:17:48.743Z,99326.22
2023-02-17T14:20:29.515Z,99325.16
2023-02-17T14:23:04.315Z,99323.72
2023-02-17T14:25:33.441Z,99331.22
2023-02-17T14:28:01.785Z,99331.66
2023-02-17T14:30:33.194Z,99328.63
2023-02-17T14:33:07.308Z,99325.84
2023-02-17T14:35:36.089Z,99329.78
2023-02-17T14:38:11.838Z,99320.81
2023-02-17T14:40:40.370Z,99326.03
2023-02-17T14:43:08.353Z,99325.72
2023-02-17T14:45:36.473Z,99322.84
2023-02-17T14:48:04.641Z,99323.75
2023-02-17T14:50:34.808Z,99330.38
2023-02-17T14:53:02.786Z,99316.06
2023-02-17T14:55:33.801Z,99321.63
2023-02-17T14:58:01.876Z,99318.84
2023-02-17T15:00:32.441Z,99321.13
2023-02-17T15:03:00.549Z,99329.59
2023-02-17T15:05:28.590Z,99334.09
2023-02-17T15:07:58.102Z,99327.66
2023-02-17T15:10:27.223Z,99333.81
2023-02-17T15:12:55.294Z,99331.22
2023-02-17T15:15:23.585Z,99326.69
2023-02-17T15:17:51.551Z,99327.53
2023-02-17T15:20:19.848Z,99324.66
2023-02-17T15:22:52.925Z,99321.94
2023-02-17T15:25:37.972Z,99316.81
2023-02-17T15:28:06.225Z,99330.75
2023-02-17T15:30:34.325Z,99320.94
2023-02-17T15:33:03.348Z,99322.09
2023-02-17T15:35:31.589Z,99317.75
2023-02-17T15:37:59.556Z,99314.34
2023-02-17T15:40:28.834Z,99317.59
2023-02-17T15:43:01.234Z,99309.84
2023-02-17T15:45:29.173Z,99309.34
2023-02-17T15:48:00.809Z,99305.94
2023-02-17T15:50:28.733Z,99311.59
2023-02-17T15:52:56.918Z,99306.28
2023-02-17T15:55:25.159Z,99310.78
2023-02-17T15:57:55.610Z,99305.44
2023-02-17T16:00:26.909Z,99306.25
2023-02-17T16:02:55.700Z,99298.63
2023-02-17T16:05:24.624Z,99288.59
2023-02-17T16:07:52.588Z,99281.97
2023-02-17T16:10:21.752Z,99287.63
2023-02-17T16:12:50.750Z,99279.69
2023-02-17T16:15:20.305Z,99281.13
2023-02-17T16:17:52.186Z,99285.34
2023-02-17T16:20:21.245Z,99277.91
2023-02-17T16:22:49.689Z,99278.06
2023-02-17T16:25:18.739Z,99278.53
2023-02-17T16:27:47.653Z,99279.66
2023-02-17T16:30:17.469Z,99269.31
2023-02-17T16:32:45.875Z,99280.47
2023-02-17T16:35:19.070Z,99272.88
2023-02-17T16:37:49.428Z,99271.41
2023-02-17T16:40:18.360Z,99264.78
2023-02-17T16:42:46.362Z,99268.31
2023-02-17T16:45:18.253Z,99262.19
2023-02-17T16:47:47.402Z,99257.19
2023-02-17T16:50:22.379Z,99252.97
2023-02-17T16:52:50.419Z,99250.41
2023-02-17T16:55:19.260Z,99249.75
2023-02-17T16:57:47.685Z,99244.09
2023-02-17T17:00:17.672Z,99239.38
2023-02-17T17:02:46.074Z,99230.97
2023-02-17T17:05:14.351Z,99226.28
2023-02-17T17:07:45.792Z,99229.00
2023-02-17T17:10:17.063Z,99231.75
2023-02-17T17:12:46.036Z,99225.16
2023-02-17T17:15:14.250Z,99217.22
2023-02-17T17:17:44.261Z,99212.06
2023-02-17T17:20:15.006Z,99212.72
2023-02-17T17:22:42.971Z,99208.69
2023-02-17T17:25:12.408Z,99202.53
2023-02-17T17:27:41.752Z,99201.06
2023-02-17T17:30:10.908Z,99195.25
2023-02-17T17:32:39.027Z,99190.59
2023-02-17T17:35:07.373Z,99189.28
2023-02-17T17:37:35.331Z,99184.94
2023-02-17T17:40:03.793Z,99177.50
2023-02-17T17:42:33.337Z,99178.47
2023-02-17T17:45:01.302Z,99174.94
2023-02-17T17:47:30.602Z,99173.50
2023-02-17T17:49:58.759Z,99174.47
2023-02-17T17:52:26.974Z,99171.38
2023-02-17T17:54:55.072Z,99166.22
2023-02-17T17:57:23.710Z,99164.59
2023-02-17T17:59:59.778Z,99164.94
2023-02-17T18:02:28.149Z,99157.66
2023-02-17T18:04:56.397Z,99159.44
2023-02-17T18:07:24.361Z,99154.59
2023-02-17T18:09:52.855Z,99159.75
2023-02-17T18:12:21.158Z,99157.63
2023-02-17T18:14:50.663Z,99157.00
2023-02-17T18:17:20.664Z,99162.97
2023-02-17T18:19:49.684Z,99163.94
2023-02-17T18:22:17.823Z,99161.81
2023-02-17T18:24:48.985Z,99164.59
2023-02-17T18:27:17.537Z,99163.63
2023-02-17T18:29:45.819Z,99161.19
2023-02-17T18:32:13.923Z,99164.25
2023-02-17T18:34:43.449Z,99158.59
2023-02-17T18:37:11.467Z,99151.31
2023-02-17T18:39:39.474Z,99143.91
2023-02-17T18:42:07.820Z,99148.75
2023-02-17T18:44:35.769Z,99151.50
2023-02-17T18:47:03.734Z,99141.00
2023-02-17T18:49:32.581Z,99133.38
2023-02-17T18:52:02.069Z,99128.38
2023-02-17T18:54:30.234Z,99117.09
2023-02-17T18:56:58.640Z,99113.53
2023-02-17T18:59:27.389Z,99116.13
2023-02-17T19:01:55.690Z,99113.84
2023-02-17T19:07:09.603Z,99112.88
2023-02-17T19:09:38.859Z,99109.97
2023-02-17T19:12:10.416Z,99114.81
2023-02-17T19:14:38.902Z,99114.16
2023-02-17T19:17:06.993Z,99117.53
2023-02-17T19:19:37.026Z,99110.44
2023-02-17T19:22:08.264Z,99109.16
2023-02-17T19:24:38.028Z,99112.53
2023-02-17T19:27:06.246Z,99114.31
2023-02-17T19:29:34.407Z,99107.53
2023-02-17T19:32:03.423Z,99102.50
2023-02-17T19:34:32.484Z,99102.03
2023-02-17T19:37:06.077Z,99098.66
2023-02-17T19:39:35.763Z,99098.31
2023-02-17T19:42:05.667Z,99091.22
2023-02-17T19:44:33.651Z,99095.72
2023-02-17T19:47:01.700Z,99097.66
2023-02-17T19:49:29.787Z,99095.06
2023-02-17T19:51:57.909Z,99084.13
2023-02-17T19:54:26.017Z,99056.63
2023-02-17T19:56:54.109Z,99081.69
2023-02-17T19:59:23.444Z,99084.09
2023-02-17T20:01:51.424Z,99077.78
2023-02-17T20:04:20.423Z,99078.91
2023-02-17T20:06:48.694Z,99079.41
2023-02-17T20:09:18.106Z,99045.59
2023-02-17T20:11:46.571Z,99080.34
2023-02-17T20:14:14.722Z,99079.41
2023-02-17T20:16:44.273Z,99075.50
2023-02-17T20:19:12.486Z,99077.44
2023-02-17T20:21:44.931Z,99078.88
2023-02-17T20:24:14.217Z,99078.53
2023-02-17T20:26:43.834Z,99078.19
2023-02-17T20:29:11.836Z,99081.72
2023-02-17T20:31:41.047Z,99067.22
2023-02-17T20:34:18.959Z,99076.69
2023-02-17T20:36:47.102Z,99067.81
2023-02-17T20:39:15.444Z,99061.84
2023-02-17T20:41:43.495Z,99059.41
2023-02-17T20:44:12.502Z,99046.69
2023-02-17T20:46:43.078Z,99044.41
2023-02-17T20:49:16.297Z,99039.41
2023-02-17T20:51:44.501Z,99041.63
2023-02-17T20:54:12.835Z,99034.19
2023-02-17T20:56:41.864Z,99027.72
2023-02-17T20:59:10.432Z,99022.63
2023-02-17T21:01:38.498Z,99020.50
2023-02-17T21:04:08.006Z,99019.19
2023-02-17T21:06:38.206Z,99021.09
2023-02-17T21:09:07.195Z,99015.28
2023-02-17T21:11:35.275Z,99003.53
2023-02-17T21:14:03.229Z,99000.00
2023-02-17T21:16:32.211Z,98995.13
2023-02-17T21:19:01.071Z,98986.25
2023-02-17T21:21:29.578Z,98981.88
2023-02-17T21:23:59.782Z,98987.03
2023-02-17T21:26:28.109Z,98981.69
2023-02-17T21:28:56.066Z,98984.94
2023-02-17T21:31:24.125Z,98983.66
2023-02-17T21:33:52.447Z,98976.72
2023-02-17T21:36:20.452Z,98977.97
2023-02-17T21:38:48.858Z,98975.72
2023-02-17T21:41:22.282Z,98969.25
2023-02-17T21:44:07.661Z,98968.91
2023-02-17T21:46:37.546Z,98962.13
2023-02-17T21:49:05.659Z,98955.53
2023-02-17T21:51:33.727Z,98956.47
2023-02-17T21:54:01.891Z,98952.75
2023-02-17T21:56:31.605Z,98953.72
2023-02-17T21:58:59.530Z,98949.81
2023-02-17T22:01:28.305Z,98942.38
2023-02-17T22:03:57.860Z,98943.22
2023-02-17T22:06:27.075Z,98941.94
2023-02-17T22:08:55.051Z,98937.88
2023-02-17T22:11:24.526Z,98933.69
2023-02-17T22:13:56.496Z,98925.31
2023-02-17T22:16:24.796Z,98911.13
2023-02-17T22:18:53.365Z,98914.66
2023-02-17T22:21:21.412Z,98914.19
2023-02-17T22:23:49.404Z,98910.66
2023-02-17T22:26:18.409Z,98906.75
2023-02-17T22:28:46.752Z,98897.72
2023-02-17T22:31:17.334Z,98905.94
2023-02-17T22:33:45.453Z,98904.63
2023-02-17T22:36:14.568Z,98891.91
2023-02-17T22:38:42.795Z,98893.69
2023-02-17T22:41:11.944Z,98886.91
2023-02-17T22:43:41.048Z,98898.00
2023-02-17T22:46:10.222Z,98890.91
2023-02-17T22:48:40.208Z,98872.34
2023-02-17T22:51:11.678Z,98880.53
2023-02-17T22:53:40.392Z,98872.97
2023-02-17T22:56:09.449Z,98850.31
2023-02-17T22:58:37.712Z,98863.47
2023-02-17T23:01:06.328Z,98849.16
2023-02-17T23:03:34.902Z,98855.25
2023-02-17T23:06:05.513Z,98847.38
2023-02-17T23:08:33.718Z,98845.63
2023-02-17T23:11:04.775Z,98840.16
2023-02-17T23:13:32.876Z,98837.25
2023-02-17T23:16:00.868Z,98833.38
2023-02-17T23:18:30.695Z,98829.19
2023-02-17T23:20:59.382Z,98832.41
2023-02-17T23:23:28.897Z,98821.31
2023-02-17T23:25:57.036Z,98822.59
2023-02-17T23:28:26.187Z,98824.38
2023-02-17T23:30:54.693Z,98826.47
2023-02-17T23:33:23.587Z,98810.38
2023-02-17T23:35:51.562Z,98813.75
2023-02-17T23:38:20.702Z,98811.69
2023-02-17T23:40:51.425Z,98804.25
2023-02-17T23:43:19.844Z,98814.41
2023-02-17T23:45:47.887Z,98808.59
2023-02-17T23:48:16.044Z,98803.13
2023-02-17T23:50:44.152Z,98805.53
2023-02-17T23:53:12.108Z,98797.66
2023-02-17T23:55:40.071Z,98797.66
2023-02-17T23:58:09.584Z,98801.63
